Camp Ground, Illinois
Current Conditions -  °F | °C
As of 6:15 PM on Wednesday 26 Nov 2014 (Local Time) from KMVN Reporting Station
Overcast Overcast  
Wind Chill: 27°   Ceiling: 400
Heat Index: 32°   Visibility: 1.2mi
Dew Point: 28°   Wind: 5mph
Humidity: 87%   Direction: 40°NE
Pressure: 30.04"   Gusts: NA
Location:  38.3147°N, 88.9065°W
Report Text: KMVN 270015Z AUTO 04004KT 1 1/4SM BKN004 OVC013 00/M02 A3004 RMK AO1
Loading
Personal Weather Stations






























Interactive Weather Map New forecast layout! Learn more

10-Day Weather Forecast

Advertisements
Track Severe Weather on mobile